createdAt,value
2018-06-19T00:00:02.440Z,101814.43
2018-06-19T00:01:12.449Z,101809.22
2018-06-19T00:02:17.124Z,101812.91
2018-06-19T00:03:21.327Z,101813.58
2018-06-19T00:04:25.576Z,101814.92
2018-06-19T00:05:31.420Z,101817.27
2018-06-19T00:06:35.803Z,101813.36
2018-06-19T00:07:40.150Z,101812.52
2018-06-19T00:08:44.343Z,101817.58
2018-06-19T00:09:49.894Z,101813.18
2018-06-19T00:10:54.102Z,101817.22
2018-06-19T00:11:58.319Z,101818.21
2018-06-19T00:13:02.577Z,101809.31
2018-06-19T00:14:06.898Z,101815.20
2018-06-19T00:15:11.143Z,101813.00
2018-06-19T00:16:15.610Z,101812.29
2018-06-19T00:17:19.889Z,101813.81
2018-06-19T00:18:26.732Z,101812.96
2018-06-19T00:19:31.786Z,101808.07
2018-06-19T00:20:35.936Z,101803.36
2018-06-19T00:21:48.323Z,101804.81
2018-06-19T00:22:52.827Z,101799.10
2018-06-19T00:23:57.098Z,101802.29
2018-06-19T00:25:01.324Z,101800.59
2018-06-19T00:26:05.779Z,101808.31
2018-06-19T00:27:09.967Z,101809.34
2018-06-19T00:28:14.197Z,101818.76
2018-06-19T00:29:18.375Z,101808.62
2018-06-19T00:30:22.692Z,101814.50
2018-06-19T00:31:26.987Z,101806.60
2018-06-19T00:32:31.187Z,101810.28
2018-06-19T00:33:35.500Z,101807.59
2018-06-19T00:34:39.687Z,101811.30
2018-06-19T00:35:43.861Z,101809.96
2018-06-19T00:36:48.113Z,101806.42
2018-06-19T00:37:52.448Z,101807.05
2018-06-19T00:38:56.988Z,101806.56
2018-06-19T00:40:01.197Z,101808.08
2018-06-19T00:41:05.664Z,101804.53
2018-06-19T00:42:09.875Z,101805.03
2018-06-19T00:43:14.075Z,101813.24
2018-06-19T00:44:18.238Z,101811.22
2018-06-19T00:45:22.488Z,101811.22
2018-06-19T00:46:28.559Z,101821.98
2018-06-19T00:47:32.779Z,101817.27
2018-06-19T00:48:37.218Z,101807.49
2018-06-19T00:49:41.454Z,101815.21
2018-06-19T00:50:45.819Z,101808.16
2018-06-19T00:51:50.154Z,101812.20
2018-06-19T00:52:54.366Z,101815.38
2018-06-19T00:53:58.514Z,101815.52
2018-06-19T00:55:02.720Z,101818.21
2018-06-19T00:56:18.104Z,101817.53
2018-06-19T00:57:22.308Z,101820.36
2018-06-19T00:58:26.614Z,101816.50
2018-06-19T00:59:31.239Z,101821.39
2018-06-19T01:00:35.440Z,101824.57
2018-06-19T01:01:39.608Z,101820.67
2018-06-19T01:02:43.824Z,101815.46
2018-06-19T01:03:48.186Z,101813.76
2018-06-19T01:04:52.363Z,101822.82
2018-06-19T01:05:56.556Z,101824.83
2018-06-19T01:07:00.804Z,101821.78
2018-06-19T01:08:04.962Z,101814.70
2018-06-19T01:09:09.984Z,101806.30
2018-06-19T01:10:14.167Z,101813.52
2018-06-19T01:11:18.375Z,101812.31
2018-06-19T01:12:22.541Z,101810.78
2018-06-19T01:13:26.742Z,101818.36
2018-06-19T01:14:30.926Z,101810.46
2018-06-19T01:15:35.117Z,101820.37
2018-06-19T01:16:39.250Z,101812.93
2018-06-19T01:17:43.522Z,101820.52
2018-06-19T01:18:47.786Z,101815.30
2018-06-19T01:19:52.148Z,101816.78
2018-06-19T01:20:56.340Z,101817.27
2018-06-19T01:22:00.531Z,101815.61
2018-06-19T01:23:05.173Z,101812.56
2018-06-19T01:24:09.468Z,101817.09
2018-06-19T01:25:13.675Z,101815.06
2018-06-19T01:26:18.372Z,101820.58
2018-06-19T01:27:23.149Z,101817.53
2018-06-19T01:28:27.434Z,101819.05
2018-06-19T01:29:31.848Z,101815.86
2018-06-19T01:30:36.106Z,101826.92
2018-06-19T01:31:40.314Z,101826.56
2018-06-19T01:32:44.480Z,101827.55
2018-06-19T01:33:48.650Z,101829.92
2018-06-19T01:34:52.886Z,101823.83
2018-06-19T01:35:57.098Z,101827.50
2018-06-19T01:37:01.823Z,101828.16
2018-06-19T01:38:06.106Z,101832.20
2018-06-19T01:39:11.069Z,101828.33
2018-06-19T01:40:15.348Z,101825.28
2018-06-19T01:41:20.112Z,101824.08
2018-06-19T01:42:24.939Z,101822.05
2018-06-19T01:43:29.459Z,101813.63
2018-06-19T01:44:33.718Z,101819.00
2018-06-19T01:45:37.891Z,101826.73
2018-06-19T01:46:42.104Z,101826.02
2018-06-19T01:47:46.248Z,101829.56
2018-06-19T01:48:50.719Z,101824.32
2018-06-19T01:49:55.108Z,101829.70
2018-06-19T01:50:59.535Z,101830.23
2018-06-19T01:52:03.780Z,101822.66
2018-06-19T01:53:08.378Z,101822.30
2018-06-19T01:54:12.611Z,101823.64
2018-06-19T01:55:16.883Z,101824.98
2018-06-19T01:56:21.157Z,101828.66
2018-06-19T01:57:25.396Z,101831.88
2018-06-19T01:58:29.675Z,101825.15
2018-06-19T01:59:34.114Z,101826.10
2018-06-19T02:00:38.293Z,101825.25
2018-06-19T02:01:42.488Z,101826.73
2018-06-19T02:02:46.713Z,101824.56
2018-06-19T02:03:50.889Z,101827.39
2018-06-19T02:04:55.094Z,101826.05
2018-06-19T02:05:59.282Z,101822.86
2018-06-19T02:07:03.492Z,101823.00
2018-06-19T02:08:07.689Z,101823.84
2018-06-19T02:09:11.948Z,101828.38
2018-06-19T02:10:16.183Z,101825.20
2018-06-19T02:11:20.416Z,101824.34
2018-06-19T02:12:24.660Z,101819.49
2018-06-19T02:13:29.107Z,101822.18
2018-06-19T02:14:34.190Z,101824.16
2018-06-19T02:15:38.583Z,101828.19
2018-06-19T02:16:42.932Z,101829.17
2018-06-19T02:17:47.100Z,101831.53
2018-06-19T02:18:51.396Z,101828.48
2018-06-19T02:19:55.720Z,101832.16
2018-06-19T02:20:59.895Z,101828.30
2018-06-19T02:22:04.123Z,101839.05
2018-06-19T02:23:08.303Z,101838.06
2018-06-19T02:24:13.088Z,101838.88
2018-06-19T02:25:17.261Z,101841.07
2018-06-19T02:26:21.487Z,101837.53
2018-06-19T02:27:25.625Z,101838.75
2018-06-19T02:28:29.894Z,101840.09
2018-06-19T02:29:34.188Z,101842.28
2018-06-19T02:30:39.185Z,101841.27
2018-06-19T02:31:43.505Z,101845.30
2018-06-19T02:32:47.712Z,101847.17
2018-06-19T02:33:51.868Z,101844.80
2018-06-19T02:34:56.480Z,101846.64
2018-06-19T02:36:00.674Z,101847.17
2018-06-19T02:37:04.959Z,101846.81
2018-06-19T02:38:09.277Z,101858.41
2018-06-19T02:39:13.519Z,101859.40
2018-06-19T02:40:17.923Z,101854.02
2018-06-19T02:41:22.286Z,101857.70
2018-06-19T02:42:26.454Z,101855.66
2018-06-19T02:43:30.665Z,101855.17
2018-06-19T02:44:35.018Z,101851.77
2018-06-19T02:45:39.296Z,101854.98
2018-06-19T02:46:43.451Z,101850.95
2018-06-19T02:47:48.003Z,101848.03
2018-06-19T02:48:53.370Z,101860.66
2018-06-19T02:49:57.529Z,101861.64
2018-06-19T02:51:01.698Z,101860.42
2018-06-19T02:52:06.200Z,101857.91
2018-06-19T02:53:10.341Z,101861.94
2018-06-19T02:54:14.571Z,101860.23
2018-06-19T02:55:18.835Z,101864.27
2018-06-19T02:56:23.017Z,101862.56
2018-06-19T02:57:27.232Z,101860.89
2018-06-19T02:58:31.724Z,101855.02
2018-06-19T02:59:36.144Z,101858.20
2018-06-19T03:00:40.361Z,101862.36
2018-06-19T03:01:44.598Z,101855.28
2018-06-19T03:02:48.815Z,101861.67
2018-06-19T03:03:53.015Z,101858.98
2018-06-19T03:04:57.200Z,101867.05
2018-06-19T03:06:01.421Z,101861.31
2018-06-19T03:07:05.630Z,101868.88
2018-06-19T03:08:09.876Z,101864.00
2018-06-19T03:09:14.212Z,101863.16
2018-06-19T03:10:18.659Z,101865.84
2018-06-19T03:11:22.889Z,101865.84
2018-06-19T03:12:27.153Z,101869.55
2018-06-19T03:13:31.365Z,101874.06
2018-06-19T03:14:35.755Z,101872.23
2018-06-19T03:15:39.911Z,101867.84
2018-06-19T03:16:44.130Z,101871.51
2018-06-19T03:17:48.309Z,101878.59
2018-06-19T03:18:52.541Z,101876.39
2018-06-19T03:19:56.745Z,101877.73
2018-06-19T03:21:01.217Z,101882.32
2018-06-19T03:22:05.583Z,101882.69
2018-06-19T03:23:09.776Z,101873.61
2018-06-19T03:24:13.963Z,101880.69
2018-06-19T03:25:18.147Z,101873.83
2018-06-19T03:26:22.312Z,101871.97
2018-06-19T03:27:26.757Z,101867.11
2018-06-19T03:28:31.031Z,101877.34
2018-06-19T03:29:35.721Z,101879.05
2018-06-19T03:30:39.887Z,101879.90
2018-06-19T03:31:44.067Z,101873.02
2018-06-19T03:32:48.252Z,101873.86
2018-06-19T03:33:53.113Z,101876.55
2018-06-19T03:34:57.422Z,101876.42
2018-06-19T03:36:01.718Z,101881.14
2018-06-19T03:37:05.903Z,101881.50
2018-06-19T03:38:10.167Z,101879.99
2018-06-19T03:39:14.443Z,101879.86
2018-06-19T03:40:18.681Z,101884.58
2018-06-19T03:41:22.958Z,101885.79
2018-06-19T03:42:27.325Z,101890.67
2018-06-19T03:43:31.635Z,101888.67
2018-06-19T03:44:36.536Z,101891.72
2018-06-19T03:45:41.140Z,101888.38
2018-06-19T03:46:45.266Z,101898.64
2018-06-19T03:47:49.481Z,101899.85
2018-06-19T03:48:54.579Z,101899.85
2018-06-19T03:49:58.762Z,101907.75
2018-06-19T03:51:02.994Z,101897.84
2018-06-19T03:52:07.204Z,101899.69
2018-06-19T03:53:11.415Z,101900.17
2018-06-19T03:54:15.686Z,101897.98
2018-06-19T03:55:20.378Z,101903.36
2018-06-19T03:56:24.803Z,101907.06
2018-06-19T03:57:29.138Z,101906.70
2018-06-19T03:58:33.405Z,101904.02
2018-06-19T03:59:37.653Z,101904.51
2018-06-19T04:00:41.955Z,101910.73
2018-06-19T04:01:46.149Z,101912.94
2018-06-19T04:02:51.050Z,101909.39
2018-06-19T04:03:55.432Z,101908.91
2018-06-19T04:04:59.878Z,101903.52
2018-06-19T04:06:04.238Z,101903.52
2018-06-19T04:07:08.527Z,101901.33
2018-06-19T04:08:12.744Z,101903.88
2018-06-19T04:09:17.003Z,101902.54
2018-06-19T04:10:21.215Z,101907.39
2018-06-19T04:11:25.585Z,101909.59
2018-06-19T04:12:29.928Z,101909.59
2018-06-19T04:13:34.216Z,101915.82
2018-06-19T04:14:38.384Z,101912.14
2018-06-19T04:15:42.570Z,101911.66
2018-06-19T04:16:46.811Z,101916.05
2018-06-19T04:17:51.031Z,101920.44
2018-06-19T04:18:55.460Z,101926.17
2018-06-19T04:19:59.832Z,101924.83
2018-06-19T04:21:04.267Z,101923.81
2018-06-19T04:22:08.459Z,101924.17
2018-06-19T04:23:12.648Z,101921.36
2018-06-19T04:24:16.854Z,101923.88
2018-06-19T04:25:21.103Z,101919.84
2018-06-19T04:26:25.262Z,101918.50
2018-06-19T04:27:29.755Z,101921.19
2018-06-19T04:28:33.924Z,101921.05
2018-06-19T04:29:38.079Z,101919.22
2018-06-19T04:30:42.255Z,101918.69
2018-06-19T04:31:46.440Z,101916.86
2018-06-19T04:32:50.656Z,101921.74
2018-06-19T04:33:54.923Z,101918.92
2018-06-19T04:34:59.170Z,101921.61
2018-06-19T04:36:03.459Z,101918.07
2018-06-19T04:37:07.720Z,101922.46
2018-06-19T04:38:11.913Z,101918.92
2018-06-19T04:39:16.180Z,101913.19
2018-06-19T04:40:20.381Z,101917.58
2018-06-19T04:41:24.560Z,101913.05
2018-06-19T04:42:29.102Z,101915.21
2018-06-19T04:43:33.647Z,101915.21
2018-06-19T04:44:37.859Z,101919.61
2018-06-19T04:45:42.136Z,101926.69
2018-06-19T04:46:46.688Z,101923.83
2018-06-19T04:47:50.867Z,101930.06
2018-06-19T04:48:55.987Z,101931.77
2018-06-19T04:50:00.204Z,101928.72
2018-06-19T04:51:04.396Z,101928.03
2018-06-19T04:52:08.636Z,101925.84
2018-06-19T04:53:12.827Z,101933.73
2018-06-19T04:54:17.148Z,101929.38
2018-06-19T04:55:21.501Z,101933.73
2018-06-19T04:56:25.768Z,101931.05
2018-06-19T04:57:29.983Z,101931.05
2018-06-19T04:58:34.236Z,101933.61
2018-06-19T04:59:38.729Z,101928.72
2018-06-19T05:00:43.029Z,101927.87
2018-06-19T05:01:47.213Z,101928.72
2018-06-19T05:02:51.453Z,101927.02
2018-06-19T05:03:56.147Z,101924.19
2018-06-19T05:05:00.187Z,101925.41
2018-06-19T05:06:04.421Z,101926.75
2018-06-19T05:07:08.657Z,101927.57
2018-06-19T05:08:13.006Z,101923.05
2018-06-19T05:09:17.546Z,101925.59
2018-06-19T05:10:22.026Z,101917.86
2018-06-19T05:11:26.339Z,101915.03
2018-06-19T05:12:30.603Z,101926.16
2018-06-19T05:13:35.035Z,101925.13
2018-06-19T05:14:39.321Z,101928.54
2018-06-19T05:15:43.778Z,101924.83
2018-06-19T05:16:48.176Z,101922.99
2018-06-19T05:17:52.342Z,101928.59
2018-06-19T05:18:56.704Z,101927.25
2018-06-19T05:20:00.997Z,101931.48
2018-06-19T05:21:05.244Z,101931.31
2018-06-19T05:22:09.517Z,101936.06
2018-06-19T05:23:13.874Z,101935.90
2018-06-19T05:24:18.198Z,101934.06
2018-06-19T05:25:23.298Z,101939.63
2018-06-19T05:26:27.723Z,101939.00
2018-06-19T05:27:31.897Z,101937.13
2018-06-19T05:28:36.243Z,101941.53
2018-06-19T05:29:40.546Z,101940.05
2018-06-19T05:30:44.894Z,101946.61
2018-06-19T05:31:49.146Z,101952.34
2018-06-19T05:32:54.525Z,101949.66
2018-06-19T05:33:58.742Z,101952.34
2018-06-19T05:35:03.081Z,101946.97
2018-06-19T05:36:07.263Z,101953.03
2018-06-19T05:37:12.248Z,101943.29
2018-06-19T05:38:16.559Z,101947.66
2018-06-19T05:39:20.995Z,101949.36
2018-06-19T05:40:25.235Z,101951.55
2018-06-19T05:41:29.587Z,101950.56
2018-06-19T05:42:33.824Z,101950.04
2018-06-19T05:43:38.063Z,101946.00
2018-06-19T05:44:42.412Z,101950.04
2018-06-19T05:45:46.664Z,101949.55
2018-06-19T05:46:51.127Z,101944.03
2018-06-19T05:47:55.397Z,101956.47
2018-06-19T05:48:59.823Z,101944.36
2018-06-19T05:50:04.285Z,101948.39
2018-06-19T05:51:08.969Z,101943.86
2018-06-19T05:52:13.318Z,101941.53
2018-06-19T05:53:17.830Z,101951.63
2018-06-19T05:54:22.064Z,101953.70
2018-06-19T05:55:26.282Z,101964.30
2018-06-19T05:56:30.654Z,101955.23
2018-06-19T05:57:35.040Z,101963.17
2018-06-19T05:58:39.323Z,101948.69
2018-06-19T05:59:43.630Z,101951.57
2018-06-19T06:00:47.861Z,101955.11
2018-06-19T06:01:52.316Z,101957.67
2018-06-19T06:02:56.516Z,101956.69
2018-06-19T06:04:00.872Z,101955.17
2018-06-19T06:05:05.244Z,101957.86
2018-06-19T06:06:09.464Z,101958.71
2018-06-19T06:07:14.139Z,101958.22
2018-06-19T06:08:18.608Z,101956.38
2018-06-19T06:09:23.020Z,101958.41
2018-06-19T06:10:27.265Z,101959.75
2018-06-19T06:11:32.535Z,101959.45
2018-06-19T06:12:36.735Z,101962.14
2018-06-19T06:13:40.900Z,101965.69
2018-06-19T06:14:45.235Z,101964.17
2018-06-19T06:15:49.394Z,101960.52
2018-06-19T06:16:53.546Z,101961.48
2018-06-19T06:17:57.751Z,101965.91
2018-06-19T06:19:02.149Z,101960.52
2018-06-19T06:20:06.818Z,101964.17
2018-06-19T06:21:11.011Z,101961.86
2018-06-19T06:22:15.277Z,101963.56
2018-06-19T06:23:19.415Z,101970.66
2018-06-19T06:24:23.617Z,101974.39
2018-06-19T06:25:27.847Z,101975.73
2018-06-19T06:26:32.059Z,101975.56
2018-06-19T06:27:36.255Z,101974.41
2018-06-19T06:28:40.421Z,101972.43
2018-06-19T06:29:44.535Z,101973.28
2018-06-19T06:30:48.876Z,101978.50
2018-06-19T06:31:53.024Z,101976.52
2018-06-19T06:32:57.587Z,101977.88
2018-06-19T06:34:01.834Z,101976.89
2018-06-19T06:35:06.068Z,101983.98
2018-06-19T06:36:10.319Z,101979.28
2018-06-19T06:37:14.551Z,101980.27
2018-06-19T06:38:18.708Z,101981.48
2018-06-19T06:39:23.032Z,101979.28
2018-06-19T06:40:27.195Z,101989.56
2018-06-19T06:41:31.633Z,101986.51
2018-06-19T06:42:35.888Z,101978.92
2018-06-19T06:43:40.061Z,101986.02
2018-06-19T06:44:44.225Z,101989.06
2018-06-19T06:45:48.489Z,101993.10
2018-06-19T06:46:52.658Z,101994.09
2018-06-19T06:47:56.878Z,101988.34
2018-06-19T06:49:01.226Z,101991.05
2018-06-19T06:50:05.495Z,101989.70
2018-06-19T06:51:09.679Z,101988.02
2018-06-19T06:52:13.810Z,101986.32
2018-06-19T06:53:18.002Z,101992.56
2018-06-19T06:54:22.405Z,101990.00
2018-06-19T06:55:26.615Z,101988.33
2018-06-19T06:56:30.997Z,101989.16
2018-06-19T06:57:35.162Z,101993.19
2018-06-19T06:58:39.317Z,101994.90
2018-06-19T06:59:43.550Z,101994.90
2018-06-19T07:00:48.041Z,101999.78
2018-06-19T07:01:52.497Z,101993.41
2018-06-19T07:02:56.704Z,102002.67
2018-06-19T07:04:00.906Z,101999.98
2018-06-19T07:05:05.101Z,102002.53
2018-06-19T07:06:09.319Z,102004.20
2018-06-19T07:07:13.523Z,101998.81
2018-06-19T07:08:18.131Z,101998.32
2018-06-19T07:09:22.312Z,101999.17
2018-06-19T07:10:26.588Z,101999.67
2018-06-19T07:11:30.809Z,102000.52
2018-06-19T07:12:34.999Z,101998.32
2018-06-19T07:13:39.207Z,102004.56
2018-06-19T07:14:43.354Z,101999.53
2018-06-19T07:15:47.872Z,102003.40
2018-06-19T07:16:52.100Z,102007.30
2018-06-19T07:17:56.297Z,102005.47
2018-06-19T07:19:00.795Z,102011.70
2018-06-19T07:20:04.980Z,102008.48
2018-06-19T07:21:09.174Z,102012.20
2018-06-19T07:22:13.330Z,102012.69
2018-06-19T07:23:17.571Z,102014.40
2018-06-19T07:24:21.950Z,102014.40
2018-06-19T07:25:26.210Z,102011.17
2018-06-19T07:26:30.404Z,102009.83
2018-06-19T07:27:34.854Z,102010.68
2018-06-19T07:28:39.043Z,102014.23
2018-06-19T07:29:43.266Z,102005.78
2018-06-19T07:30:47.482Z,102011.53
2018-06-19T07:31:51.647Z,102017.11
2018-06-19T07:32:55.963Z,102018.81
2018-06-19T07:34:00.156Z,102011.41
2018-06-19T07:35:04.460Z,102016.16
2018-06-19T07:36:08.700Z,102015.99
2018-06-19T07:37:12.868Z,102010.11
2018-06-19T07:38:17.083Z,102012.31
2018-06-19T07:39:21.335Z,102007.77
2018-06-19T07:40:25.504Z,102016.89
2018-06-19T07:41:29.768Z,102016.72
2018-06-19T07:42:33.997Z,102019.63
2018-06-19T07:43:38.407Z,102013.08
2018-06-19T07:44:42.547Z,102017.31
2018-06-19T07:45:46.784Z,102016.67
2018-06-19T07:46:50.988Z,102017.71
2018-06-19T07:47:55.139Z,102021.94
2018-06-19T07:48:59.319Z,102022.62
2018-06-19T07:50:04.050Z,102024.32
2018-06-19T07:51:08.271Z,102024.15
2018-06-19T07:52:12.422Z,102022.80
2018-06-19T07:53:16.603Z,102028.91
2018-06-19T07:54:20.735Z,102028.05
2018-06-19T07:55:25.085Z,102029.05
2018-06-19T07:56:29.315Z,102031.91
2018-06-19T07:57:33.575Z,102031.55
2018-06-19T07:58:37.789Z,102027.69
2018-06-19T07:59:41.972Z,102032.72
2018-06-19T08:00:46.282Z,102033.71
2018-06-19T08:01:50.446Z,102038.74
2018-06-19T08:02:54.756Z,102036.05
2018-06-19T08:03:58.891Z,102032.17
2018-06-19T08:05:03.679Z,102027.78
2018-06-19T08:06:07.847Z,102027.96
2018-06-19T08:07:12.899Z,102035.41
2018-06-19T08:08:17.290Z,102031.55
2018-06-19T08:09:21.538Z,102029.54
2018-06-19T08:10:25.771Z,102033.80
2018-06-19T08:11:29.960Z,102032.28
2018-06-19T08:12:34.132Z,102032.14
2018-06-19T08:13:38.339Z,102036.19
2018-06-19T08:14:42.500Z,102037.36
2018-06-19T08:15:46.681Z,102031.47
2018-06-19T08:16:50.945Z,102034.03
2018-06-19T08:17:55.211Z,102040.09
2018-06-19T08:18:59.372Z,102037.41
2018-06-19T08:20:03.634Z,102036.41
2018-06-19T08:21:07.949Z,102038.08
2018-06-19T08:22:12.144Z,102041.52
2018-06-19T08:23:16.421Z,102041.88
2018-06-19T08:24:20.556Z,102043.55
2018-06-19T08:25:24.932Z,102040.53
2018-06-19T08:26:29.085Z,102043.23
2018-06-19T08:27:33.246Z,102052.03
2018-06-19T08:28:37.412Z,102046.97
2018-06-19T08:29:41.622Z,102045.48
2018-06-19T08:30:45.865Z,102047.50
2018-06-19T08:31:50.053Z,102042.33
2018-06-19T08:32:54.311Z,102047.55
2018-06-19T08:33:58.631Z,102052.27
2018-06-19T08:35:02.826Z,102051.27
2018-06-19T08:36:07.275Z,102048.44
2018-06-19T08:37:11.781Z,102054.68
2018-06-19T08:38:15.993Z,102048.08
2018-06-19T08:39:20.199Z,102046.23
2018-06-19T08:40:24.546Z,102053.47
2018-06-19T08:41:28.756Z,102050.78
2018-06-19T08:42:32.949Z,102050.59
2018-06-19T08:43:37.367Z,102048.89
2018-06-19T08:44:41.600Z,102054.78
2018-06-19T08:45:45.792Z,102054.45
2018-06-19T08:46:49.971Z,102056.80
2018-06-19T08:47:54.258Z,102055.45
2018-06-19T08:48:58.395Z,102051.41
2018-06-19T08:50:02.895Z,102055.81
2018-06-19T08:51:07.224Z,102052.80
2018-06-19T08:52:11.375Z,102053.83
2018-06-19T08:53:15.993Z,102051.67
2018-06-19T08:54:20.499Z,102053.20
2018-06-19T08:55:24.649Z,102052.88
2018-06-19T08:56:29.115Z,102056.61
2018-06-19T08:57:33.321Z,102060.16
2018-06-19T08:58:37.499Z,102056.30
2018-06-19T08:59:41.695Z,102061.87
2018-06-19T09:00:45.911Z,102061.23
2018-06-19T09:01:50.083Z,102059.38
2018-06-19T09:02:54.553Z,102059.56
2018-06-19T09:03:58.848Z,102064.14
2018-06-19T09:05:03.236Z,102060.42
2018-06-19T09:06:07.443Z,102062.97
2018-06-19T09:07:11.698Z,102059.95
2018-06-19T09:08:15.989Z,102060.13
2018-06-19T09:09:20.171Z,102059.81
2018-06-19T09:10:24.338Z,102064.56
2018-06-19T09:11:28.591Z,102065.91
2018-06-19T09:12:32.767Z,102064.39
2018-06-19T09:13:36.961Z,102066.59
2018-06-19T09:14:41.141Z,102065.59
2018-06-19T09:15:45.422Z,102068.97
2018-06-19T09:16:49.651Z,102069.47
2018-06-19T09:17:53.893Z,102062.58
2018-06-19T09:18:58.119Z,102070.50
2018-06-19T09:20:02.423Z,102067.30
2018-06-19T09:21:07.495Z,102061.26
2018-06-19T09:22:11.726Z,102063.28
2018-06-19T09:23:15.911Z,102059.59
2018-06-19T09:24:20.243Z,102062.96
2018-06-19T09:25:24.534Z,102060.94
2018-06-19T09:26:28.769Z,102066.34
2018-06-19T09:27:33.148Z,102062.64
2018-06-19T09:28:37.702Z,102057.09
2018-06-19T09:29:42.109Z,102057.30
2018-06-19T09:30:46.458Z,102062.02
2018-06-19T09:31:50.912Z,102059.33
2018-06-19T09:32:55.175Z,102060.03
2018-06-19T09:33:59.572Z,102059.35
2018-06-19T09:35:04.432Z,102061.38
2018-06-19T09:36:08.888Z,102063.25
2018-06-19T09:37:13.177Z,102065.48
2018-06-19T09:38:17.607Z,102059.75
2018-06-19T09:39:21.808Z,102059.43
2018-06-19T09:40:26.008Z,102064.86
2018-06-19T09:41:30.238Z,102064.17
2018-06-19T09:42:34.454Z,102061.33
2018-06-19T09:43:38.667Z,102061.33
2018-06-19T09:44:42.906Z,102063.70
2018-06-19T09:45:47.135Z,102066.41
2018-06-19T09:46:51.318Z,102068.75
2018-06-19T09:47:55.512Z,102067.75
2018-06-19T09:48:59.730Z,102070.61
2018-06-19T09:50:04.084Z,102069.25
2018-06-19T09:51:08.261Z,102071.63
2018-06-19T09:52:12.418Z,102068.58
2018-06-19T09:53:16.665Z,102066.38
2018-06-19T09:54:21.023Z,102066.88
2018-06-19T09:55:25.287Z,102064.17
2018-06-19T09:56:29.479Z,102062.33
2018-06-19T09:57:33.763Z,102068.41
2018-06-19T09:58:38.070Z,102068.61
2018-06-19T09:59:42.415Z,102066.08
2018-06-19T10:00:46.689Z,102068.59
2018-06-19T10:01:50.937Z,102069.95
2018-06-19T10:02:55.457Z,102067.09
2018-06-19T10:03:59.709Z,102061.02
2018-06-19T10:05:04.048Z,102062.72
2018-06-19T10:06:08.281Z,102064.23
2018-06-19T10:07:12.531Z,102065.61
2018-06-19T10:08:16.738Z,102063.94
2018-06-19T10:09:20.965Z,102064.60
2018-06-19T10:10:25.359Z,102067.00
2018-06-19T10:11:29.757Z,102065.47
2018-06-19T10:12:33.931Z,102063.44
2018-06-19T10:13:38.179Z,102068.34
2018-06-19T10:14:42.463Z,102059.91
2018-06-19T10:15:46.945Z,102067.18
2018-06-19T10:16:51.163Z,102070.25
2018-06-19T10:17:55.347Z,102063.70
2018-06-19T10:18:59.555Z,102066.06
2018-06-19T10:20:03.847Z,102070.14
2018-06-19T10:21:08.063Z,102070.47
2018-06-19T10:22:12.571Z,102072.19
2018-06-19T10:23:16.771Z,102072.36
2018-06-19T10:24:20.987Z,102078.78
2018-06-19T10:25:25.242Z,102072.87
2018-06-19T10:26:29.460Z,102072.87
2018-06-19T10:27:33.636Z,102080.64
2018-06-19T10:28:37.898Z,102079.45
2018-06-19T10:29:42.503Z,102079.30
2018-06-19T10:30:47.295Z,102073.56
2018-06-19T10:31:51.632Z,102080.14
2018-06-19T10:32:55.886Z,102079.98
2018-06-19T10:34:00.648Z,102078.98
2018-06-19T10:35:05.045Z,102081.34
2018-06-19T10:36:09.259Z,102080.66
2018-06-19T10:37:13.503Z,102086.43
2018-06-19T10:38:17.744Z,102076.96
2018-06-19T10:39:21.981Z,102081.34
2018-06-19T10:40:26.183Z,102084.20
2018-06-19T10:41:30.455Z,102083.70
2018-06-19T10:42:34.660Z,102079.99
2018-06-19T10:43:38.893Z,102081.34
2018-06-19T10:44:43.196Z,102083.70
2018-06-19T10:45:47.418Z,102083.39
2018-06-19T10:46:51.629Z,102084.20
2018-06-19T10:47:55.972Z,102077.63
2018-06-19T10:49:00.177Z,102084.39
2018-06-19T10:50:04.653Z,102077.98
2018-06-19T10:51:08.967Z,102081.84
2018-06-19T10:52:13.232Z,102082.70
2018-06-19T10:53:17.591Z,102084.56
2018-06-19T10:54:21.854Z,102081.67
2018-06-19T10:55:26.147Z,102084.58
2018-06-19T10:56:30.579Z,102083.03
2018-06-19T10:57:38.143Z,102083.05
2018-06-19T10:58:42.334Z,102083.05
2018-06-19T10:59:46.676Z,102073.08
2018-06-19T11:00:50.827Z,102078.15
2018-06-19T11:01:55.136Z,102082.40
2018-06-19T11:02:59.340Z,102080.86
2018-06-19T11:04:03.608Z,102085.61
2018-06-19T11:05:07.812Z,102081.20
2018-06-19T11:06:11.974Z,102077.14
2018-06-19T11:07:16.270Z,102083.06
2018-06-19T11:08:20.535Z,102082.38
2018-06-19T11:09:24.758Z,102083.22
2018-06-19T11:10:28.977Z,102089.14
2018-06-19T11:11:33.387Z,102090.17
2018-06-19T11:12:37.572Z,102079.35
2018-06-19T11:13:41.727Z,102087.47
2018-06-19T11:14:46.680Z,102086.43
2018-06-19T11:15:50.854Z,102086.12
2018-06-19T11:16:55.112Z,102084.77
2018-06-19T11:17:59.316Z,102084.08
2018-06-19T11:19:03.530Z,102088.14
2018-06-19T11:20:08.712Z,102088.14
2018-06-19T11:21:13.216Z,102092.17
2018-06-19T11:22:17.521Z,102087.61
2018-06-19T11:23:21.855Z,102088.11
2018-06-19T11:24:26.143Z,102093.19
2018-06-19T11:25:30.462Z,102089.78
2018-06-19T11:26:34.769Z,102085.06
2018-06-19T11:27:38.930Z,102088.93
2018-06-19T11:28:43.139Z,102096.05
2018-06-19T11:29:47.305Z,102090.09
2018-06-19T11:30:51.525Z,102092.14
2018-06-19T11:31:55.844Z,102096.52
2018-06-19T11:33:00.087Z,102098.91
2018-06-19T11:34:04.183Z,102096.20
2018-06-19T11:35:08.473Z,102095.01
2018-06-19T11:36:12.979Z,102096.36
2018-06-19T11:37:17.475Z,102092.80
2018-06-19T11:38:21.718Z,102093.34
2018-06-19T11:39:25.880Z,102101.12
2018-06-19T11:40:30.064Z,102098.56
2018-06-19T11:41:34.274Z,102091.80
2018-06-19T11:42:38.500Z,102093.84
2018-06-19T11:43:42.799Z,102099.57
2018-06-19T11:44:46.985Z,102092.45
2018-06-19T11:45:51.139Z,102088.73
2018-06-19T11:46:55.352Z,102083.63
2018-06-19T11:47:59.502Z,102084.97
2018-06-19T11:49:03.744Z,102083.30
2018-06-19T11:50:08.294Z,102079.38
2018-06-19T11:51:12.460Z,102082.58
2018-06-19T11:52:16.695Z,102077.60
2018-06-19T11:53:20.864Z,102083.34
2018-06-19T11:54:25.127Z,102081.23
2018-06-19T11:55:29.248Z,102084.08
2018-06-19T11:56:33.423Z,102074.41
2018-06-19T11:57:37.622Z,102082.33
2018-06-19T11:58:41.788Z,102076.04
2018-06-19T11:59:46.490Z,102080.59
2018-06-19T12:00:51.183Z,102073.63
2018-06-19T12:01:55.470Z,102081.63
2018-06-19T12:02:59.949Z,102081.25
2018-06-19T12:04:04.115Z,102084.66
2018-06-19T12:05:08.608Z,102081.81
2018-06-19T12:06:12.840Z,102081.48
2018-06-19T12:07:17.140Z,102079.63
2018-06-19T12:08:21.363Z,102078.33
2018-06-19T12:09:25.571Z,102088.14
2018-06-19T12:10:30.099Z,102079.20
2018-06-19T12:11:34.279Z,102081.08
2018-06-19T12:12:38.945Z,102074.67
2018-06-19T12:13:43.216Z,102075.73